^^
Meteo Knjazevac Station Historical Data
Daily Summary for June 3, 2021 Units:  Both    English   Metric
Daily Weekly Monthly Yearly Custom
  High: Low: Average:
Temperature: 35.2 °F /  1.8 °C 31.5 °F /  -0.3 °C 33.5 °F /  0.8 °C
Dew Point: 35 °F /  1.7 °C 31.2 °F /  -0.4 °C 33.2 °F /  0.7 °C
Humidity: 99% 99% 99%
Wind Speed: 2mph /  3.2km/h - 0.7mph /  1.1km/h
Wind Gust: 6mph /  9.7km/h - -
Wind- - West
Pressure: 30.16 in /  1021.2 hPa 30.12 in /  1019.9 hPa -
Precipitation: 0.12 in /  3.05 mm    
Historical Graphs
 
 
Tabular Data for June 3, 2021
Time Temperature Dew Point Pressure Wind Wind Speed Wind Gust Humidity Rainfall Rate (Hourly) solar Conditions
00:00 31.5 °F /  -0.3 °C 31.2 °F /  -0.4 °C 30.16in /  1021.2hPa West 1mph /  1.6km/h 2mph /  3.2km/h 99% 0.00in /  0mm 0 W/m2
00:10 31.6 °F /  -0.2 °C 31.4 °F /  -0.3 °C 30.16in /  1021.2hPa West 1mph /  1.6km/h 3mph /  4.8km/h 99% 0.00in /  0mm 0 W/m2
00:20 31.6 °F /  -0.2 °C 31.4 °F /  -0.3 °C 30.16in /  1021.2hPa WSW 2mph /  3.2km/h 5mph /  8km/h 99% 0.00in /  0mm 0 W/m2
00:30 31.8 °F /  -0.1 °C 31.6 °F /  -0.2 °C 30.15in /  1020.9hPa WNW 2mph /  3.2km/h 6mph /  9.7km/h 99% 0.00in /  0mm 0 W/m2
00:40 32 °F /  0 °C 31.8 °F /  -0.1 °C 30.15in /  1020.9hPa West 2mph /  3.2km/h 5mph /  8km/h 99% 0.00in /  0mm 0 W/m2
00:50 32.2 °F /  0.1 °C 31.9 °F /  -0.1 °C 30.16in /  1021.2hPa WSW 2mph /  3.2km/h 5mph /  8km/h 99% 0.00in /  0mm 0 W/m2
01:00 32.2 °F /  0.1 °C 31.9 °F /  -0.1 °C 30.15in /  1020.9hPa West 2mph /  3.2km/h 4mph /  6.4km/h 99% 0.00in /  0mm 0 W/m2
01:10 32.3 °F /  0.2 °C 32 °F /  0 °C 30.15in /  1020.9hPa West 1mph /  1.6km/h 3mph /  4.8km/h 99% 0.00in /  0mm 0 W/m2
01:20 32.4 °F /  0.2 °C 32.1 °F /  0.1 °C 30.15in /  1020.9hPa West 1mph /  1.6km/h 2mph /  3.2km/h 99% 0.00in /  0mm 0 W/m2
01:30 32.5 °F /  0.3 °C 32.3 °F /  0.2 °C 30.15in /  1020.9hPa Calm   3mph /  4.8km/h 99% 0.00in /  0mm 0 W/m2
01:40 32.7 °F /  0.4 °C 32.5 °F /  0.3 °C 30.15in /  1020.9hPa NW 1mph /  1.6km/h 3mph /  4.8km/h 99% 0.00in /  0mm 0 W/m2
01:50 32.9 °F /  0.5 °C 32.7 °F /  0.4 °C 30.15in /  1020.9hPa Calm   3mph /  4.8km/h 99% 0.00in /  0mm 0 W/m2
02:00 32.9 °F /  0.5 °C 32.7 °F /  0.4 °C 30.15in /  1020.9hPa Calm   2mph /  3.2km/h 99% 0.00in /  0mm 0 W/m2
02:10 33.1 °F /  0.6 °C 32.8 °F /  0.4 °C 30.15in /  1020.9hPa Calm   2mph /  3.2km/h 99% 0.00in /  0mm 0 W/m2
02:20 33.1 °F /  0.6 °C 32.8 °F /  0.4 °C 30.15in /  1020.9hPa Calm   3mph /  4.8km/h 99% 0.00in /  0mm 0 W/m2
02:30 33.3 °F /  0.7 °C 33 °F /  0.6 °C 30.15in /  1020.9hPa Calm   4mph /  6.4km/h 99% 0.00in /  0mm 0 W/m2
02:40 33.4 °F /  0.8 °C 33.2 °F /  0.7 °C 30.15in /  1020.9hPa Calm   2mph /  3.2km/h 99% 0.00in /  0mm 0 W/m2
02:50 33.4 °F /  0.8 °C 33.2 °F /  0.7 °C 30.15in /  1020.9hPa Calm   2mph /  3.2km/h 99% 0.00in /  0mm 0 W/m2
03:00 33.4 °F /  0.8 °C 33.2 °F /  0.7 °C 30.15in /  1020.9hPa West 1mph /  1.6km/h 3mph /  4.8km/h 99% 0.00in /  0mm 0 W/m2
03:10 33.4 °F /  0.8 °C 33.2 °F /  0.7 °C 30.15in /  1020.9hPa West 1mph /  1.6km/h 2mph /  3.2km/h 99% 0.00in /  0mm 0 W/m2
03:20 33.4 °F /  0.8 °C 33.2 °F /  0.7 °C 30.15in /  1020.9hPa WSW 1mph /  1.6km/h 2mph /  3.2km/h 99% 0.00in /  0mm 0 W/m2
03:30 33.4 °F /  0.8 °C 33.2 °F /  0.7 °C 30.15in /  1020.9hPa WSW 2mph /  3.2km/h 2mph /  3.2km/h 99% 0.00in /  0mm 0 W/m2
03:40 33.5 °F /  0.8 °C 33.3 °F /  0.7 °C 30.15in /  1020.9hPa West 1mph /  1.6km/h 3mph /  4.8km/h 99% 0.00in /  0mm 0 W/m2
03:50 33.6 °F /  0.9 °C 33.4 °F /  0.8 °C 30.14in /  1020.5hPa West 1mph /  1.6km/h 4mph /  6.4km/h 99% 0.00in /  0mm 0 W/m2
04:00 33.8 °F /  1 °C 33.5 °F /  0.8 °C 30.14in /  1020.5hPa Calm   2mph /  3.2km/h 99% 0.00in /  0mm 0 W/m2
04:10 33.8 °F /  1 °C 33.5 °F /  0.8 °C 30.14in /  1020.5hPa Calm   1mph /  1.6km/h 99% 0.00in /  0mm 0 W/m2
04:20 34 °F /  1.1 °C 33.7 °F /  0.9 °C 30.14in /  1020.5hPa Calm   2mph /  3.2km/h 99% 0.00in /  0mm 0 W/m2
04:30 34 °F /  1.1 °C 33.7 °F /  0.9 °C 30.14in /  1020.5hPa Calm   2mph /  3.2km/h 99% 0.00in /  0mm 0 W/m2
04:40 34.2 °F /  1.2 °C 33.9 °F /  1.1 °C 30.14in /  1020.5hPa Calm   2mph /  3.2km/h 99% 0.00in /  0mm 0 W/m2
04:50 34.2 °F /  1.2 °C 34 °F /  1.1 °C 30.14in /  1020.5hPa NW 1mph /  1.6km/h 2mph /  3.2km/h 99% 0.00in /  0mm 0 W/m2
05:00 34.3 °F /  1.3 °C 34.1 °F /  1.2 °C 30.13in /  1020.2hPa Calm   2mph /  3.2km/h 99% 0.00in /  0mm 0 W/m2
05:10 34.5 °F /  1.4 °C 34.3 °F /  1.3 °C 30.13in /  1020.2hPa Calm   2mph /  3.2km/h 99% 0.00in /  0mm 0 W/m2
05:20 34.5 °F /  1.4 °C 34.3 °F /  1.3 °C 30.13in /  1020.2hPa Calm   2mph /  3.2km/h 99% 0.00in /  0mm 0 W/m2
05:30 34.7 °F /  1.5 °C 34.4 °F /  1.3 °C 30.13in /  1020.2hPa Calm   2mph /  3.2km/h 99% 0.12in /  3.05mm 0 W/m2
05:40 34.9 °F /  1.6 °C 34.6 °F /  1.4 °C 30.12in /  1019.9hPa Calm   2mph /  3.2km/h 99% 0.00in /  0mm 0 W/m2
05:50 34.7 °F /  1.5 °C 34.4 °F /  1.3 °C 30.13in /  1020.2hPa WSW 2mph /  3.2km/h 3mph /  4.8km/h 99% 0.00in /  0mm 0 W/m2
06:00 34.5 °F /  1.4 °C 34.3 °F /  1.3 °C 30.13in /  1020.2hPa West 2mph /  3.2km/h 5mph /  8km/h 99% 0.00in /  0mm 0 W/m2
06:10 34.7 °F /  1.5 °C 34.4 °F /  1.3 °C 30.13in /  1020.2hPa West 1mph /  1.6km/h 4mph /  6.4km/h 99% 0.00in /  0mm 0 W/m2
06:20 34.9 °F /  1.6 °C 34.6 °F /  1.4 °C 30.13in /  1020.2hPa West 1mph /  1.6km/h 3mph /  4.8km/h 99% 0.00in /  0mm 0 W/m2
06:30 34.9 °F /  1.6 °C 34.6 °F /  1.4 °C 30.13in /  1020.2hPa Calm   2mph /  3.2km/h 99% 0.00in /  0mm 0 W/m2
06:40 35.1 °F /  1.7 °C 34.8 °F /  1.6 °C 30.13in /  1020.2hPa North 1mph /  1.6km/h 3mph /  4.8km/h 99% 0.00in /  0mm 0 W/m2
06:50 35.2 °F /  1.8 °C 35 °F /  1.7 °C 30.14in /  1020.5hPa Calm   6mph /  9.7km/h 99% 0.00in /  0mm 0 W/m2
Knjazevac, Serbia
Compliments of Weather Underground - 2 mb